sensor_id;sensor_type;location;lat;lon;timestamp;P1;durP1;ratioP1;P2;durP2;ratioP2
70416;SDS011;57839;51.332;12.410;2022-12-01T00:02:14;78.38;;;29.95;;
70416;SDS011;57839;51.332;12.410;2022-12-01T00:04:39;76.95;;;30.55;;
70416;SDS011;57839;51.332;12.410;2022-12-01T00:07:04;75.88;;;30.27;;
70416;SDS011;57839;51.332;12.410;2022-12-01T00:09:30;89.03;;;32.58;;
70416;SDS011;57839;51.332;12.410;2022-12-01T00:12:14;76.50;;;30.20;;
70416;SDS011;57839;51.332;12.410;2022-12-01T00:14:39;75.20;;;29.33;;
70416;SDS011;57839;51.332;12.410;2022-12-01T00:17:05;75.53;;;28.92;;
70416;SDS011;57839;51.332;12.410;2022-12-01T00:19:30;83.00;;;30.55;;
70416;SDS011;57839;51.332;12.410;2022-12-01T00:21:56;84.72;;;30.98;;
70416;SDS011;57839;51.332;12.410;2022-12-01T00:24:21;74.45;;;31.25;;
70416;SDS011;57839;51.332;12.410;2022-12-01T00:26:48;75.50;;;28.20;;
70416;SDS011;57839;51.332;12.410;2022-12-01T00:29:14;89.50;;;31.98;;
70416;SDS011;57839;51.332;12.410;2022-12-01T00:31:39;79.82;;;30.45;;
70416;SDS011;57839;51.332;12.410;2022-12-01T00:34:05;79.70;;;30.55;;
70416;SDS011;57839;51.332;12.410;2022-12-01T00:36:31;83.05;;;31.23;;
70416;SDS011;57839;51.332;12.410;2022-12-01T00:38:57;78.97;;;28.33;;
70416;SDS011;57839;51.332;12.410;2022-12-01T00:41:23;78.80;;;28.90;;
70416;SDS011;57839;51.332;12.410;2022-12-01T00:43:49;77.63;;;27.85;;
70416;SDS011;57839;51.332;12.410;2022-12-01T00:46:15;79.00;;;29.23;;
70416;SDS011;57839;51.332;12.410;2022-12-01T00:48:41;73.03;;;29.17;;
70416;SDS011;57839;51.332;12.410;2022-12-01T00:51:06;73.57;;;26.52;;
70416;SDS011;57839;51.332;12.410;2022-12-01T00:53:32;72.63;;;26.75;;
70416;SDS011;57839;51.332;12.410;2022-12-01T00:55:57;72.35;;;27.25;;
70416;SDS011;57839;51.332;12.410;2022-12-01T00:58:23;70.20;;;24.77;;
70416;SDS011;57839;51.332;12.410;2022-12-01T01:00:55;79.97;;;29.60;;
70416;SDS011;57839;51.332;12.410;2022-12-01T01:03:22;75.43;;;28.70;;
70416;SDS011;57839;51.332;12.410;2022-12-01T01:05:47;75.97;;;27.15;;
70416;SDS011;57839;51.332;12.410;2022-12-01T01:08:13;65.97;;;24.70;;
70416;SDS011;57839;51.332;12.410;2022-12-01T01:10:40;66.65;;;27.27;;
70416;SDS011;57839;51.332;12.410;2022-12-01T01:13:07;68.47;;;26.40;;
70416;SDS011;57839;51.332;12.410;2022-12-01T01:15:33;74.00;;;25.75;;
70416;SDS011;57839;51.332;12.410;2022-12-01T01:17:59;71.95;;;29.10;;
70416;SDS011;57839;51.332;12.410;2022-12-01T01:20:24;74.78;;;28.42;;
70416;SDS011;57839;51.332;12.410;2022-12-01T01:22:50;72.65;;;26.80;;
70416;SDS011;57839;51.332;12.410;2022-12-01T01:25:15;76.15;;;27.20;;
70416;SDS011;57839;51.332;12.410;2022-12-01T01:27:40;69.68;;;26.50;;
70416;SDS011;57839;51.332;12.410;2022-12-01T01:30:06;71.60;;;27.63;;
70416;SDS011;57839;51.332;12.410;2022-12-01T01:32:32;77.28;;;27.65;;
70416;SDS011;57839;51.332;12.410;2022-12-01T01:34:58;72.05;;;27.13;;
70416;SDS011;57839;51.332;12.410;2022-12-01T01:37:23;61.05;;;23.95;;
70416;SDS011;57839;51.332;12.410;2022-12-01T01:39:49;72.88;;;25.75;;
70416;SDS011;57839;51.332;12.410;2022-12-01T01:42:17;70.50;;;27.73;;
70416;SDS011;57839;51.332;12.410;2022-12-01T01:47:08;75.28;;;27.42;;
70416;SDS011;57839;51.332;12.410;2022-12-01T01:49:34;68.22;;;25.50;;
70416;SDS011;57839;51.332;12.410;2022-12-01T01:51:59;64.88;;;26.08;;
70416;SDS011;57839;51.332;12.410;2022-12-01T01:54:50;63.40;;;24.25;;
70416;SDS011;57839;51.332;12.410;2022-12-01T01:57:16;67.85;;;24.80;;
70416;SDS011;57839;51.332;12.410;2022-12-01T01:59:48;66.10;;;26.02;;
70416;SDS011;57839;51.332;12.410;2022-12-01T02:02:16;62.42;;;22.30;;
70416;SDS011;57839;51.332;12.410;2022-12-01T02:04:45;66.35;;;25.20;;
70416;SDS011;57839;51.332;12.410;2022-12-01T02:07:14;55.08;;;22.88;;
70416;SDS011;57839;51.332;12.410;2022-12-01T02:09:41;64.40;;;23.60;;
70416;SDS011;57839;51.332;12.410;2022-12-01T02:26:29;62.33;;;24.08;;
70416;SDS011;57839;51.332;12.410;2022-12-01T02:32:15;66.43;;;25.10;;
70416;SDS011;57839;51.332;12.410;2022-12-01T02:34:51;64.60;;;24.65;;
70416;SDS011;57839;51.332;12.410;2022-12-01T02:37:32;64.47;;;23.63;;
70416;SDS011;57839;51.332;12.410;2022-12-01T02:40:23;70.05;;;25.48;;
70416;SDS011;57839;51.332;12.410;2022-12-01T02:43:28;69.15;;;24.67;;
70416;SDS011;57839;51.332;12.410;2022-12-01T02:48:31;60.70;;;21.63;;
70416;SDS011;57839;51.332;12.410;2022-12-01T02:51:08;59.58;;;24.25;;
70416;SDS011;57839;51.332;12.410;2022-12-01T02:53:43;65.35;;;23.45;;
70416;SDS011;57839;51.332;12.410;2022-12-01T02:56:10;58.17;;;21.85;;
70416;SDS011;57839;51.332;12.410;2022-12-01T02:58:36;61.13;;;21.98;;
70416;SDS011;57839;51.332;12.410;2022-12-01T03:04:00;73.05;;;26.25;;
70416;SDS011;57839;51.332;12.410;2022-12-01T03:06:42;66.32;;;23.05;;
70416;SDS011;57839;51.332;12.410;2022-12-01T03:09:22;57.33;;;21.80;;
70416;SDS011;57839;51.332;12.410;2022-12-01T03:14:44;56.83;;;21.48;;
70416;SDS011;57839;51.332;12.410;2022-12-01T03:17:29;49.38;;;20.35;;
70416;SDS011;57839;51.332;12.410;2022-12-01T03:20:22;54.53;;;21.17;;
70416;SDS011;57839;51.332;12.410;2022-12-01T03:22:52;53.05;;;20.33;;
70416;SDS011;57839;51.332;12.410;2022-12-01T03:25:21;59.67;;;23.45;;
70416;SDS011;57839;51.332;12.410;2022-12-01T03:27:48;57.80;;;22.80;;
70416;SDS011;57839;51.332;12.410;2022-12-01T03:30:15;103.65;;;43.55;;
70416;SDS011;57839;51.332;12.410;2022-12-01T03:32:44;54.90;;;21.25;;
70416;SDS011;57839;51.332;12.410;2022-12-01T03:35:14;57.80;;;22.80;;
70416;SDS011;57839;51.332;12.410;2022-12-01T03:37:54;49.78;;;20.50;;
70416;SDS011;57839;51.332;12.410;2022-12-01T03:40:23;57.58;;;21.98;;
70416;SDS011;57839;51.332;12.410;2022-12-01T03:42:52;56.92;;;20.02;;
70416;SDS011;57839;51.332;12.410;2022-12-01T03:45:23;110.70;;;44.92;;
70416;SDS011;57839;51.332;12.410;2022-12-01T03:47:52;68.82;;;26.20;;
70416;SDS011;57839;51.332;12.410;2022-12-01T03:50:18;57.00;;;21.50;;
70416;SDS011;57839;51.332;12.410;2022-12-01T03:52:51;59.17;;;22.00;;
70416;SDS011;57839;51.332;12.410;2022-12-01T03:55:32;63.33;;;24.75;;
70416;SDS011;57839;51.332;12.410;2022-12-01T03:58:06;106.15;;;43.90;;
70416;SDS011;57839;51.332;12.410;2022-12-01T04:00:35;60.33;;;22.17;;
70416;SDS011;57839;51.332;12.410;2022-12-01T04:03:01;52.92;;;21.60;;
70416;SDS011;57839;51.332;12.410;2022-12-01T04:05:28;50.20;;;20.45;;
70416;SDS011;57839;51.332;12.410;2022-12-01T04:07:54;57.92;;;21.30;;
70416;SDS011;57839;51.332;12.410;2022-12-01T04:10:20;64.45;;;21.75;;
70416;SDS011;57839;51.332;12.410;2022-12-01T04:12:45;56.60;;;22.30;;
70416;SDS011;57839;51.332;12.410;2022-12-01T04:15:11;56.50;;;22.13;;
70416;SDS011;57839;51.332;12.410;2022-12-01T04:17:38;55.38;;;19.95;;
70416;SDS011;57839;51.332;12.410;2022-12-01T04:20:07;63.13;;;23.08;;
70416;SDS011;57839;51.332;12.410;2022-12-01T04:22:34;60.72;;;22.48;;
70416;SDS011;57839;51.332;12.410;2022-12-01T04:25:00;60.95;;;20.50;;
70416;SDS011;57839;51.332;12.410;2022-12-01T04:27:26;51.33;;;19.85;;
70416;SDS011;57839;51.332;12.410;2022-12-01T04:29:52;51.80;;;21.02;;
70416;SDS011;57839;51.332;12.410;2022-12-01T04:32:17;53.22;;;20.45;;
70416;SDS011;57839;51.332;12.410;2022-12-01T04:34:43;56.42;;;19.15;;
70416;SDS011;57839;51.332;12.410;2022-12-01T04:37:08;53.80;;;20.58;;
70416;SDS011;57839;51.332;12.410;2022-12-01T04:39:36;51.15;;;20.67;;
70416;SDS011;57839;51.332;12.410;2022-12-01T04:42:01;55.38;;;20.60;;
70416;SDS011;57839;51.332;12.410;2022-12-01T04:44:27;63.90;;;20.70;;
70416;SDS011;57839;51.332;12.410;2022-12-01T04:46:52;49.85;;;18.80;;
70416;SDS011;57839;51.332;12.410;2022-12-01T04:49:19;54.17;;;20.27;;
70416;SDS011;57839;51.332;12.410;2022-12-01T04:51:45;55.53;;;19.13;;
70416;SDS011;57839;51.332;12.410;2022-12-01T04:54:11;51.75;;;18.45;;
70416;SDS011;57839;51.332;12.410;2022-12-01T04:56:37;57.10;;;19.35;;
70416;SDS011;57839;51.332;12.410;2022-12-01T04:59:02;51.75;;;17.90;;
70416;SDS011;57839;51.332;12.410;2022-12-01T05:01:28;59.95;;;19.27;;
70416;SDS011;57839;51.332;12.410;2022-12-01T05:03:54;54.47;;;19.88;;
70416;SDS011;57839;51.332;12.410;2022-12-01T05:06:21;56.80;;;20.75;;
70416;SDS011;57839;51.332;12.410;2022-12-01T05:08:48;52.13;;;18.88;;
70416;SDS011;57839;51.332;12.410;2022-12-01T05:11:14;53.08;;;19.77;;
70416;SDS011;57839;51.332;12.410;2022-12-01T05:13:41;51.92;;;17.83;;
70416;SDS011;57839;51.332;12.410;2022-12-01T05:16:09;49.95;;;18.48;;
70416;SDS011;57839;51.332;12.410;2022-12-01T05:18:36;52.78;;;17.63;;
70416;SDS011;57839;51.332;12.410;2022-12-01T05:21:02;52.47;;;18.67;;
70416;SDS011;57839;51.332;12.410;2022-12-01T05:23:30;53.05;;;18.10;;
70416;SDS011;57839;51.332;12.410;2022-12-01T05:25:56;51.75;;;19.02;;
70416;SDS011;57839;51.332;12.410;2022-12-01T05:28:23;55.58;;;20.63;;
70416;SDS011;57839;51.332;12.410;2022-12-01T05:30:49;66.38;;;21.85;;
70416;SDS011;57839;51.332;12.410;2022-12-01T05:33:15;52.97;;;19.02;;
70416;SDS011;57839;51.332;12.410;2022-12-01T05:35:41;53.78;;;18.77;;
70416;SDS011;57839;51.332;12.410;2022-12-01T05:38:07;49.25;;;18.80;;
70416;SDS011;57839;51.332;12.410;2022-12-01T05:40:33;55.80;;;18.65;;
70416;SDS011;57839;51.332;12.410;2022-12-01T05:42:59;51.45;;;20.55;;
70416;SDS011;57839;51.332;12.410;2022-12-01T05:45:24;56.42;;;19.17;;
70416;SDS011;57839;51.332;12.410;2022-12-01T05:47:53;53.75;;;19.40;;
70416;SDS011;57839;51.332;12.410;2022-12-01T05:50:20;48.38;;;18.10;;
70416;SDS011;57839;51.332;12.410;2022-12-01T05:52:45;55.47;;;19.55;;
70416;SDS011;57839;51.332;12.410;2022-12-01T05:55:11;48.60;;;19.00;;
70416;SDS011;57839;51.332;12.410;2022-12-01T05:57:36;49.88;;;18.30;;
70416;SDS011;57839;51.332;12.410;2022-12-01T06:00:03;58.83;;;20.95;;
70416;SDS011;57839;51.332;12.410;2022-12-01T06:02:29;58.80;;;18.50;;
70416;SDS011;57839;51.332;12.410;2022-12-01T06:04:55;48.10;;;17.77;;
70416;SDS011;57839;51.332;12.410;2022-12-01T06:07:21;58.35;;;18.70;;
70416;SDS011;57839;51.332;12.410;2022-12-01T06:09:47;54.63;;;19.98;;
70416;SDS011;57839;51.332;12.410;2022-12-01T06:12:13;55.03;;;18.95;;
70416;SDS011;57839;51.332;12.410;2022-12-01T06:14:39;52.53;;;18.92;;
70416;SDS011;57839;51.332;12.410;2022-12-01T06:17:04;55.47;;;21.08;;
70416;SDS011;57839;51.332;12.410;2022-12-01T06:19:30;64.78;;;20.40;;
70416;SDS011;57839;51.332;12.410;2022-12-01T06:21:56;58.85;;;21.55;;
70416;SDS011;57839;51.332;12.410;2022-12-01T06:24:22;54.97;;;18.65;;
70416;SDS011;57839;51.332;12.410;2022-12-01T06:26:48;54.22;;;20.70;;
70416;SDS011;57839;51.332;12.410;2022-12-01T06:29:14;50.20;;;18.75;;
70416;SDS011;57839;51.332;12.410;2022-12-01T06:31:39;57.92;;;19.48;;
70416;SDS011;57839;51.332;12.410;2022-12-01T06:34:04;47.10;;;17.80;;
70416;SDS011;57839;51.332;12.410;2022-12-01T06:36:30;46.30;;;18.85;;
70416;SDS011;57839;51.332;12.410;2022-12-01T06:38:55;52.92;;;18.60;;
70416;SDS011;57839;51.332;12.410;2022-12-01T06:41:21;53.13;;;19.75;;
70416;SDS011;57839;51.332;12.410;2022-12-01T06:43:46;56.05;;;19.55;;
70416;SDS011;57839;51.332;12.410;2022-12-01T06:46:12;55.90;;;20.27;;
70416;SDS011;57839;51.332;12.410;2022-12-01T06:48:37;53.80;;;19.38;;
70416;SDS011;57839;51.332;12.410;2022-12-01T06:51:03;51.50;;;18.77;;
70416;SDS011;57839;51.332;12.410;2022-12-01T06:53:29;50.35;;;19.98;;
70416;SDS011;57839;51.332;12.410;2022-12-01T06:55:58;54.67;;;19.15;;
70416;SDS011;57839;51.332;12.410;2022-12-01T06:58:24;50.67;;;19.45;;
70416;SDS011;57839;51.332;12.410;2022-12-01T07:00:50;58.22;;;20.92;;
70416;SDS011;57839;51.332;12.410;2022-12-01T07:03:15;52.35;;;19.23;;
70416;SDS011;57839;51.332;12.410;2022-12-01T07:05:41;61.78;;;21.38;;
70416;SDS011;57839;51.332;12.410;2022-12-01T07:08:06;52.58;;;19.83;;
70416;SDS011;57839;51.332;12.410;2022-12-01T07:10:32;55.20;;;19.33;;
70416;SDS011;57839;51.332;12.410;2022-12-01T07:12:57;52.28;;;20.52;;
70416;SDS011;57839;51.332;12.410;2022-12-01T07:15:23;62.78;;;20.10;;
70416;SDS011;57839;51.332;12.410;2022-12-01T07:17:48;102.70;;;41.58;;
70416;SDS011;57839;51.332;12.410;2022-12-01T07:20:14;76.03;;;30.98;;
70416;SDS011;57839;51.332;12.410;2022-12-01T07:22:40;67.57;;;24.45;;
70416;SDS011;57839;51.332;12.410;2022-12-01T07:25:07;55.80;;;20.92;;
70416;SDS011;57839;51.332;12.410;2022-12-01T07:27:33;59.03;;;22.40;;
70416;SDS011;57839;51.332;12.410;2022-12-01T07:29:59;67.93;;;23.80;;
70416;SDS011;57839;51.332;12.410;2022-12-01T07:32:25;58.65;;;20.42;;
70416;SDS011;57839;51.332;12.410;2022-12-01T07:34:50;58.30;;;20.15;;
70416;SDS011;57839;51.332;12.410;2022-12-01T07:37:16;63.90;;;22.70;;
70416;SDS011;57839;51.332;12.410;2022-12-01T07:39:41;59.15;;;20.17;;
70416;SDS011;57839;51.332;12.410;2022-12-01T07:42:07;60.85;;;21.70;;
70416;SDS011;57839;51.332;12.410;2022-12-01T07:44:32;58.88;;;20.80;;
70416;SDS011;57839;51.332;12.410;2022-12-01T07:46:58;69.50;;;21.60;;
70416;SDS011;57839;51.332;12.410;2022-12-01T07:49:24;56.75;;;19.88;;
70416;SDS011;57839;51.332;12.410;2022-12-01T07:51:49;137.75;;;53.40;;
70416;SDS011;57839;51.332;12.410;2022-12-01T07:54:15;72.03;;;27.05;;
70416;SDS011;57839;51.332;12.410;2022-12-01T07:56:41;60.00;;;21.70;;
70416;SDS011;57839;51.332;12.410;2022-12-01T07:59:07;57.10;;;20.92;;
70416;SDS011;57839;51.332;12.410;2022-12-01T08:01:33;54.17;;;20.58;;
70416;SDS011;57839;51.332;12.410;2022-12-01T08:03:58;56.53;;;20.80;;
70416;SDS011;57839;51.332;12.410;2022-12-01T08:06:24;60.85;;;20.23;;
70416;SDS011;57839;51.332;12.410;2022-12-01T08:08:51;56.13;;;20.75;;
70416;SDS011;57839;51.332;12.410;2022-12-01T08:11:18;60.15;;;22.15;;
70416;SDS011;57839;51.332;12.410;2022-12-01T08:13:45;70.45;;;24.17;;
70416;SDS011;57839;51.332;12.410;2022-12-01T08:16:13;69.10;;;23.75;;
70416;SDS011;57839;51.332;12.410;2022-12-01T08:18:40;61.45;;;21.52;;
70416;SDS011;57839;51.332;12.410;2022-12-01T08:21:07;64.55;;;23.60;;
70416;SDS011;57839;51.332;12.410;2022-12-01T08:23:34;56.25;;;20.85;;
70416;SDS011;57839;51.332;12.410;2022-12-01T08:26:01;59.33;;;22.50;;
70416;SDS011;57839;51.332;12.410;2022-12-01T08:28:31;64.40;;;24.77;;
70416;SDS011;57839;51.332;12.410;2022-12-01T08:31:05;110.65;;;42.08;;
70416;SDS011;57839;51.332;12.410;2022-12-01T08:33:41;70.10;;;26.70;;
70416;SDS011;57839;51.332;12.410;2022-12-01T08:36:07;58.38;;;22.70;;
70416;SDS011;57839;51.332;12.410;2022-12-01T08:38:32;63.13;;;23.02;;
70416;SDS011;57839;51.332;12.410;2022-12-01T08:41:02;64.63;;;22.42;;
70416;SDS011;57839;51.332;12.410;2022-12-01T08:43:28;65.82;;;25.15;;
70416;SDS011;57839;51.332;12.410;2022-12-01T08:46:00;67.97;;;24.90;;
70416;SDS011;57839;51.332;12.410;2022-12-01T08:48:26;69.88;;;24.40;;
70416;SDS011;57839;51.332;12.410;2022-12-01T08:51:03;59.15;;;23.48;;
70416;SDS011;57839;51.332;12.410;2022-12-01T08:53:32;68.75;;;26.20;;
70416;SDS011;57839;51.332;12.410;2022-12-01T08:56:00;70.05;;;23.55;;
70416;SDS011;57839;51.332;12.410;2022-12-01T08:58:26;66.28;;;22.85;;
70416;SDS011;57839;51.332;12.410;2022-12-01T09:00:52;65.07;;;20.23;;
70416;SDS011;57839;51.332;12.410;2022-12-01T09:03:17;78.07;;;46.20;;
70416;SDS011;57839;51.332;12.410;2022-12-01T09:05:43;69.13;;;27.00;;
70416;SDS011;57839;51.332;12.410;2022-12-01T09:08:08;73.60;;;25.23;;
70416;SDS011;57839;51.332;12.410;2022-12-01T09:11:01;73.55;;;27.65;;
70416;SDS011;57839;51.332;12.410;2022-12-01T09:13:29;80.18;;;27.92;;
70416;SDS011;57839;51.332;12.410;2022-12-01T09:16:06;68.72;;;26.58;;
70416;SDS011;57839;51.332;12.410;2022-12-01T09:18:34;66.72;;;26.15;;
70416;SDS011;57839;51.332;12.410;2022-12-01T09:20:59;70.63;;;26.25;;
70416;SDS011;57839;51.332;12.410;2022-12-01T09:23:28;83.35;;;35.00;;
70416;SDS011;57839;51.332;12.410;2022-12-01T09:25:53;70.15;;;26.73;;
70416;SDS011;57839;51.332;12.410;2022-12-01T09:28:19;73.10;;;26.27;;
70416;SDS011;57839;51.332;12.410;2022-12-01T09:30:45;73.22;;;27.88;;
70416;SDS011;57839;51.332;12.410;2022-12-01T09:33:11;71.57;;;27.38;;
70416;SDS011;57839;51.332;12.410;2022-12-01T09:35:37;74.18;;;28.77;;
70416;SDS011;57839;51.332;12.410;2022-12-01T09:38:03;78.07;;;26.80;;
70416;SDS011;57839;51.332;12.410;2022-12-01T09:40:34;75.40;;;26.95;;
70416;SDS011;57839;51.332;12.410;2022-12-01T09:43:03;78.93;;;27.80;;
70416;SDS011;57839;51.332;12.410;2022-12-01T09:45:32;82.50;;;30.15;;
70416;SDS011;57839;51.332;12.410;2022-12-01T09:48:00;74.85;;;27.90;;
70416;SDS011;57839;51.332;12.410;2022-12-01T09:50:27;81.45;;;28.52;;
70416;SDS011;57839;51.332;12.410;2022-12-01T09:52:57;79.28;;;29.00;;
70416;SDS011;57839;51.332;12.410;2022-12-01T09:55:26;84.18;;;28.83;;
70416;SDS011;57839;51.332;12.410;2022-12-01T09:57:53;67.32;;;26.02;;
70416;SDS011;57839;51.332;12.410;2022-12-01T10:00:26;72.22;;;27.35;;
70416;SDS011;57839;51.332;12.410;2022-12-01T10:05:56;69.22;;;25.42;;
70416;SDS011;57839;51.332;12.410;2022-12-01T10:08:26;73.55;;;25.67;;
70416;SDS011;57839;51.332;12.410;2022-12-01T10:10:55;68.90;;;25.80;;
70416;SDS011;57839;51.332;12.410;2022-12-01T10:13:25;79.70;;;28.15;;
70416;SDS011;57839;51.332;12.410;2022-12-01T10:26:17;74.50;;;26.85;;
70416;SDS011;57839;51.332;12.410;2022-12-01T10:31:44;77.68;;;27.75;;
70416;SDS011;57839;51.332;12.410;2022-12-01T10:34:16;72.95;;;27.70;;
70416;SDS011;57839;51.332;12.410;2022-12-01T10:36:44;68.33;;;25.80;;
70416;SDS011;57839;51.332;12.410;2022-12-01T10:42:01;78.30;;;27.88;;
70416;SDS011;57839;51.332;12.410;2022-12-01T10:44:30;78.20;;;27.93;;
70416;SDS011;57839;51.332;12.410;2022-12-01T10:46:55;80.97;;;28.38;;
70416;SDS011;57839;51.332;12.410;2022-12-01T10:49:33;83.75;;;28.65;;
70416;SDS011;57839;51.332;12.410;2022-12-01T10:52:01;77.88;;;28.83;;
70416;SDS011;57839;51.332;12.410;2022-12-01T10:54:34;83.05;;;29.50;;
70416;SDS011;57839;51.332;12.410;2022-12-01T10:57:05;81.03;;;30.35;;
70416;SDS011;57839;51.332;12.410;2022-12-01T10:59:34;84.22;;;29.83;;
70416;SDS011;57839;51.332;12.410;2022-12-01T11:02:01;85.95;;;30.23;;
70416;SDS011;57839;51.332;12.410;2022-12-01T11:04:41;79.93;;;29.85;;
70416;SDS011;57839;51.332;12.410;2022-12-01T11:07:22;80.03;;;28.67;;
70416;SDS011;57839;51.332;12.410;2022-12-01T11:12:45;83.75;;;29.52;;
70416;SDS011;57839;51.332;12.410;2022-12-01T11:15:20;88.80;;;30.15;;
70416;SDS011;57839;51.332;12.410;2022-12-01T11:17:47;90.07;;;29.95;;
70416;SDS011;57839;51.332;12.410;2022-12-01T11:20:29;89.03;;;31.08;;
70416;SDS011;57839;51.332;12.410;2022-12-01T11:25:34;90.50;;;31.33;;
70416;SDS011;57839;51.332;12.410;2022-12-01T11:28:00;94.63;;;33.13;;
70416;SDS011;57839;51.332;12.410;2022-12-01T11:30:26;90.35;;;31.40;;
70416;SDS011;57839;51.332;12.410;2022-12-01T11:32:58;94.28;;;32.75;;
70416;SDS011;57839;51.332;12.410;2022-12-01T11:35:27;94.57;;;30.63;;
70416;SDS011;57839;51.332;12.410;2022-12-01T11:37:57;97.35;;;33.78;;
70416;SDS011;57839;51.332;12.410;2022-12-01T11:40:24;91.82;;;31.73;;
70416;SDS011;57839;51.332;12.410;2022-12-01T11:42:52;84.18;;;29.80;;
70416;SDS011;57839;51.332;12.410;2022-12-01T11:50:30;92.03;;;33.33;;
70416;SDS011;57839;51.332;12.410;2022-12-01T11:52:58;89.50;;;32.72;;
70416;SDS011;57839;51.332;12.410;2022-12-01T11:55:25;105.70;;;34.58;;
70416;SDS011;57839;51.332;12.410;2022-12-01T11:57:52;97.63;;;32.85;;
70416;SDS011;57839;51.332;12.410;2022-12-01T12:00:21;96.28;;;33.95;;
70416;SDS011;57839;51.332;12.410;2022-12-01T12:08:47;85.85;;;31.90;;
70416;SDS011;57839;51.332;12.410;2022-12-01T12:11:33;89.88;;;31.85;;
70416;SDS011;57839;51.332;12.410;2022-12-01T12:30:20;89.95;;;33.30;;
70416;SDS011;57839;51.332;12.410;2022-12-01T13:05:39;95.15;;;34.70;;
70416;SDS011;57839;51.332;12.410;2022-12-01T13:08:10;100.82;;;36.38;;
70416;SDS011;57839;51.332;12.410;2022-12-01T13:11:01;103.68;;;36.85;;
70416;SDS011;57839;51.332;12.410;2022-12-01T13:13:39;109.80;;;35.83;;
70416;SDS011;57839;51.332;12.410;2022-12-01T13:16:20;103.93;;;36.90;;
70416;SDS011;57839;51.332;12.410;2022-12-01T13:21:27;112.45;;;39.15;;
70416;SDS011;57839;51.332;12.410;2022-12-01T13:23:55;108.78;;;39.67;;
70416;SDS011;57839;51.332;12.410;2022-12-01T13:26:21;99.43;;;36.75;;
70416;SDS011;57839;51.332;12.410;2022-12-01T13:28:50;104.03;;;39.25;;
70416;SDS011;57839;51.332;12.410;2022-12-01T13:31:18;98.40;;;38.88;;
70416;SDS011;57839;51.332;12.410;2022-12-01T13:34:45;108.80;;;39.17;;
70416;SDS011;57839;51.332;12.410;2022-12-01T13:36:52;96.40;;;37.70;;
70416;SDS011;57839;51.332;12.410;2022-12-01T13:39:22;100.97;;;38.00;;
70416;SDS011;57839;51.332;12.410;2022-12-01T13:41:56;102.47;;;38.38;;
70416;SDS011;57839;51.332;12.410;2022-12-01T13:44:22;92.88;;;35.30;;
70416;SDS011;57839;51.332;12.410;2022-12-01T13:46:51;98.28;;;36.05;;
70416;SDS011;57839;51.332;12.410;2022-12-01T13:49:35;100.50;;;36.38;;
70416;SDS011;57839;51.332;12.410;2022-12-01T13:57:32;85.30;;;33.97;;
70416;SDS011;57839;51.332;12.410;2022-12-01T14:02:32;88.57;;;36.70;;
70416;SDS011;57839;51.332;12.410;2022-12-01T14:07:46;89.35;;;35.78;;
70416;SDS011;57839;51.332;12.410;2022-12-01T14:12:48;80.65;;;35.65;;
70416;SDS011;57839;51.332;12.410;2022-12-01T14:18:47;75.50;;;31.30;;
70416;SDS011;57839;51.332;12.410;2022-12-01T14:21:09;76.10;;;31.08;;
70416;SDS011;57839;51.332;12.410;2022-12-01T14:23:37;70.97;;;32.75;;
70416;SDS011;57839;51.332;12.410;2022-12-01T14:26:18;72.50;;;30.75;;
70416;SDS011;57839;51.332;12.410;2022-12-01T14:34:08;76.75;;;31.92;;
70416;SDS011;57839;51.332;12.410;2022-12-01T14:36:40;77.80;;;33.03;;
70416;SDS011;57839;51.332;12.410;2022-12-01T14:39:11;82.43;;;31.25;;
70416;SDS011;57839;51.332;12.410;2022-12-01T14:41:42;79.20;;;31.52;;
70416;SDS011;57839;51.332;12.410;2022-12-01T14:49:41;83.07;;;32.97;;
70416;SDS011;57839;51.332;12.410;2022-12-01T14:54:53;76.95;;;33.42;;
70416;SDS011;57839;51.332;12.410;2022-12-01T14:57:23;82.65;;;32.17;;
70416;SDS011;57839;51.332;12.410;2022-12-01T15:05:17;76.35;;;31.67;;
70416;SDS011;57839;51.332;12.410;2022-12-01T15:07:45;77.88;;;30.98;;
70416;SDS011;57839;51.332;12.410;2022-12-01T15:10:17;76.25;;;29.48;;
70416;SDS011;57839;51.332;12.410;2022-12-01T15:12:45;80.97;;;33.22;;
70416;SDS011;57839;51.332;12.410;2022-12-01T15:15:15;81.75;;;35.05;;
70416;SDS011;57839;51.332;12.410;2022-12-01T15:17:42;91.20;;;35.80;;
70416;SDS011;57839;51.332;12.410;2022-12-01T15:22:53;76.60;;;31.48;;
70416;SDS011;57839;51.332;12.410;2022-12-01T15:25:19;79.32;;;33.53;;
70416;SDS011;57839;51.332;12.410;2022-12-01T15:27:45;87.75;;;35.28;;
70416;SDS011;57839;51.332;12.410;2022-12-01T15:30:25;88.78;;;34.50;;
70416;SDS011;57839;51.332;12.410;2022-12-01T15:32:51;88.93;;;35.13;;
70416;SDS011;57839;51.332;12.410;2022-12-01T15:35:18;84.55;;;34.90;;
70416;SDS011;57839;51.332;12.410;2022-12-01T15:37:45;93.78;;;35.95;;
70416;SDS011;57839;51.332;12.410;2022-12-01T15:40:15;88.45;;;33.60;;
70416;SDS011;57839;51.332;12.410;2022-12-01T15:42:42;85.20;;;34.90;;
70416;SDS011;57839;51.332;12.410;2022-12-01T15:50:26;81.78;;;33.40;;
70416;SDS011;57839;51.332;12.410;2022-12-01T15:52:58;76.63;;;32.47;;
70416;SDS011;57839;51.332;12.410;2022-12-01T15:55:28;79.47;;;33.42;;
70416;SDS011;57839;51.332;12.410;2022-12-01T15:57:56;84.38;;;32.92;;
70416;SDS011;57839;51.332;12.410;2022-12-01T16:00:22;66.53;;;29.75;;
70416;SDS011;57839;51.332;12.410;2022-12-01T16:02:48;77.32;;;32.97;;
70416;SDS011;57839;51.332;12.410;2022-12-01T16:05:31;79.13;;;32.22;;
70416;SDS011;57839;51.332;12.410;2022-12-01T16:10:44;72.65;;;31.40;;
70416;SDS011;57839;51.332;12.410;2022-12-01T16:16:20;82.80;;;32.00;;
70416;SDS011;57839;51.332;12.410;2022-12-01T16:18:55;78.75;;;31.90;;
70416;SDS011;57839;51.332;12.410;2022-12-01T16:21:24;74.45;;;31.90;;
70416;SDS011;57839;51.332;12.410;2022-12-01T16:24:00;72.20;;;31.27;;
70416;SDS011;57839;51.332;12.410;2022-12-01T16:26:27;74.65;;;32.70;;
70416;SDS011;57839;51.332;12.410;2022-12-01T16:28:53;74.93;;;31.00;;
70416;SDS011;57839;51.332;12.410;2022-12-01T16:31:20;74.05;;;31.17;;
70416;SDS011;57839;51.332;12.410;2022-12-01T16:33:48;75.88;;;31.80;;
70416;SDS011;57839;51.332;12.410;2022-12-01T16:36:24;69.75;;;31.38;;
70416;SDS011;57839;51.332;12.410;2022-12-01T16:38:49;74.22;;;31.63;;
70416;SDS011;57839;51.332;12.410;2022-12-01T16:41:27;76.97;;;30.98;;
70416;SDS011;57839;51.332;12.410;2022-12-01T16:43:56;75.40;;;30.90;;
70416;SDS011;57839;51.332;12.410;2022-12-01T16:46:22;75.35;;;31.15;;
70416;SDS011;57839;51.332;12.410;2022-12-01T16:48:47;76.35;;;31.77;;
70416;SDS011;57839;51.332;12.410;2022-12-01T16:51:14;78.95;;;32.05;;
70416;SDS011;57839;51.332;12.410;2022-12-01T16:53:40;74.28;;;32.38;;
70416;SDS011;57839;51.332;12.410;2022-12-01T16:56:07;78.88;;;33.83;;
70416;SDS011;57839;51.332;12.410;2022-12-01T16:58:36;74.25;;;32.08;;
70416;SDS011;57839;51.332;12.410;2022-12-01T17:01:03;79.22;;;32.03;;
70416;SDS011;57839;51.332;12.410;2022-12-01T17:03:29;75.60;;;32.70;;